createdAt,value
2022-11-09T00:01:02.489Z,96265.50
2022-11-09T00:03:31.723Z,96261.88
2022-11-09T00:06:00.791Z,96254.47
2022-11-09T00:08:29.219Z,96260.69
2022-11-09T00:11:02.869Z,96242.72
2022-11-09T00:13:30.905Z,96250.91
2022-11-09T00:16:00.134Z,96251.63
2022-11-09T00:18:27.961Z,96251.34
2022-11-09T00:20:57.352Z,96258.56
2022-11-09T00:23:25.119Z,96251.41
2022-11-09T00:25:52.823Z,96240.78
2022-11-09T00:28:20.699Z,96250.00
2022-11-09T00:30:48.595Z,96254.28
2022-11-09T00:33:16.463Z,96252.16
2022-11-09T00:35:44.609Z,96240.28
2022-11-09T00:38:13.709Z,96245.97
2022-11-09T00:40:41.518Z,96245.63
2022-11-09T00:43:09.677Z,96234.53
2022-11-09T00:45:37.714Z,96242.72
2022-11-09T00:48:05.616Z,96234.47
2022-11-09T00:50:34.112Z,96237.31
2022-11-09T00:53:02.274Z,96233.03
2022-11-09T00:55:31.409Z,96236.75
2022-11-09T00:57:59.097Z,96236.25
2022-11-09T01:00:26.821Z,96236.53
2022-11-09T01:02:54.869Z,96239.44
2022-11-09T01:05:22.574Z,96240.47
2022-11-09T01:07:50.706Z,96251.22
2022-11-09T01:10:18.445Z,96253.00
2022-11-09T01:12:47.497Z,96260.53
2022-11-09T01:15:15.198Z,96259.91
2022-11-09T01:17:42.908Z,96267.53
2022-11-09T01:20:12.024Z,96265.94
2022-11-09T01:22:39.711Z,96258.84
2022-11-09T01:25:08.505Z,96270.09
2022-11-09T01:27:36.798Z,96264.72
2022-11-09T01:30:06.914Z,96264.91
2022-11-09T01:32:34.911Z,96254.03
2022-11-09T01:35:02.636Z,96255.19
2022-11-09T01:37:30.360Z,96254.09
2022-11-09T01:39:58.062Z,96253.91
2022-11-09T01:42:26.678Z,96246.47
2022-11-09T01:45:30.108Z,96260.19
2022-11-09T01:48:02.927Z,96256.22
2022-11-09T01:50:39.281Z,96248.66
2022-11-09T01:53:12.135Z,96255.34
2022-11-09T01:55:40.266Z,96258.19
2022-11-09T01:58:11.703Z,96251.41
2022-11-09T02:00:45.304Z,96257.09
2022-11-09T02:03:19.103Z,96256.44
2022-11-09T02:05:48.750Z,96253.34
2022-11-09T02:08:19.782Z,96247.16
2022-11-09T02:10:56.583Z,96247.09
2022-11-09T02:13:27.853Z,96242.16
2022-11-09T02:15:57.282Z,96239.84
2022-11-09T02:18:25.310Z,96238.59
2022-11-09T02:20:56.368Z,96238.75
2022-11-09T02:23:25.480Z,96245.03
2022-11-09T02:25:58.055Z,96234.75
2022-11-09T02:28:28.204Z,96227.38
2022-11-09T02:30:58.073Z,96222.78
2022-11-09T02:33:26.143Z,96233.00
2022-11-09T02:35:55.368Z,96218.19
2022-11-09T02:38:23.090Z,96232.69
2022-11-09T02:40:53.895Z,96225.97
2022-11-09T02:43:22.220Z,96239.66
2022-11-09T02:45:50.196Z,96248.38
2022-11-09T02:48:18.164Z,96240.69
2022-11-09T02:50:45.825Z,96227.06
2022-11-09T02:53:14.976Z,96228.03
2022-11-09T02:55:42.714Z,96234.69
2022-11-09T02:58:10.423Z,96242.47
2022-11-09T03:00:38.355Z,96236.41
2022-11-09T03:03:06.925Z,96231.13
2022-11-09T03:05:34.749Z,96235.94
2022-11-09T03:08:03.114Z,96231.81
2022-11-09T03:10:32.265Z,96231.00
2022-11-09T03:13:00.357Z,96230.91
2022-11-09T03:15:28.277Z,96235.06
2022-11-09T03:17:56.193Z,96236.31
2022-11-09T03:20:23.945Z,96244.53
2022-11-09T03:22:51.996Z,96237.13
2022-11-09T03:25:19.739Z,96248.97
2022-11-09T03:27:48.864Z,96246.47
2022-11-09T03:30:18.975Z,96252.72
2022-11-09T03:32:50.400Z,96256.22
2022-11-09T03:35:18.581Z,96258.00
2022-11-09T03:37:46.315Z,96247.19
2022-11-09T03:40:14.162Z,96260.66
2022-11-09T03:42:44.814Z,96267.22
2022-11-09T03:45:15.180Z,96265.97
2022-11-09T03:47:43.513Z,96269.63
2022-11-09T03:50:12.708Z,96268.97
2022-11-09T03:52:40.776Z,96270.88
2022-11-09T03:55:09.130Z,96276.28
2022-11-09T03:57:36.912Z,96270.81
2022-11-09T04:00:05.943Z,96274.31
2022-11-09T04:02:35.081Z,96289.75
2022-11-09T04:05:02.859Z,96297.31
2022-11-09T04:07:30.631Z,96310.38
2022-11-09T04:09:58.624Z,96305.06
2022-11-09T04:12:26.712Z,96320.53
2022-11-09T04:14:54.515Z,96329.19
2022-11-09T04:17:22.247Z,96329.47
2022-11-09T04:19:51.295Z,96332.59
2022-11-09T04:22:19.049Z,96330.50
2022-11-09T04:24:46.761Z,96336.88
2022-11-09T04:27:14.442Z,96335.53
2022-11-09T04:29:42.414Z,96330.34
2022-11-09T04:32:10.181Z,96337.31
2022-11-09T04:34:37.952Z,96333.59
2022-11-09T04:37:07.110Z,96324.41
2022-11-09T04:39:35.156Z,96335.22
2022-11-09T04:42:03.016Z,96333.00
2022-11-09T04:44:31.277Z,96337.16
2022-11-09T04:46:59.091Z,96350.13
2022-11-09T04:49:26.903Z,96332.72
2022-11-09T04:51:54.691Z,96347.69
2022-11-09T04:54:23.988Z,96348.13
2022-11-09T04:56:51.719Z,96341.38
2022-11-09T04:59:19.485Z,96349.75
2022-11-09T05:01:47.209Z,96353.69
2022-11-09T05:04:14.993Z,96346.13
2022-11-09T05:06:43.165Z,96362.06
2022-11-09T05:09:10.903Z,96358.78
2022-11-09T05:11:40.094Z,96348.56
2022-11-09T05:14:07.850Z,96335.53
2022-11-09T05:16:35.623Z,96358.41
2022-11-09T05:19:03.875Z,96360.66
2022-11-09T05:21:31.627Z,96358.78
2022-11-09T05:24:02.416Z,96359.25
2022-11-09T05:26:32.078Z,96367.81
2022-11-09T05:29:02.671Z,96364.34
2022-11-09T05:31:31.081Z,96360.88
2022-11-09T05:33:59.438Z,96348.13
2022-11-09T05:36:28.105Z,96371.31
2022-11-09T05:38:56.300Z,96372.09
2022-11-09T05:41:24.506Z,96380.72
2022-11-09T05:43:52.488Z,96386.41
2022-11-09T05:46:22.482Z,96385.00
2022-11-09T05:48:50.235Z,96393.56
2022-11-09T05:51:17.956Z,96394.41
2022-11-09T05:53:47.043Z,96394.84
2022-11-09T05:56:15.522Z,96404.56
2022-11-09T05:58:43.920Z,96396.97
2022-11-09T06:01:15.872Z,96402.78
2022-11-09T06:03:45.048Z,96409.72
2022-11-09T06:06:14.362Z,96416.69
2022-11-09T06:08:44.789Z,96409.72
2022-11-09T06:11:19.929Z,96409.72
2022-11-09T06:13:50.858Z,96412.53
2022-11-09T06:16:18.617Z,96401.06
2022-11-09T06:18:47.785Z,96418.47
2022-11-09T06:21:15.519Z,96428.56
2022-11-09T06:23:43.293Z,96422.00
2022-11-09T06:26:12.669Z,96405.75
2022-11-09T06:28:41.662Z,96401.41
2022-11-09T06:31:12.872Z,96425.22
2022-11-09T06:33:40.694Z,96418.84
2022-11-09T06:36:11.148Z,96402.75
2022-11-09T06:38:39.040Z,96414.72
2022-11-09T06:41:06.875Z,96414.72
2022-11-09T06:43:34.655Z,96419.00
2022-11-09T06:46:04.777Z,96414.84
2022-11-09T06:48:32.555Z,96424.50
2022-11-09T06:51:04.316Z,96422.84
2022-11-09T06:53:34.984Z,96418.91
2022-11-09T06:56:04.889Z,96408.59
2022-11-09T06:58:33.531Z,96412.31
2022-11-09T07:01:01.401Z,96430.69
2022-11-09T07:03:29.120Z,96440.91
2022-11-09T07:05:56.861Z,96445.19
2022-11-09T07:08:24.693Z,96443.34
2022-11-09T07:10:53.818Z,96437.25
2022-11-09T07:13:21.867Z,96443.41
2022-11-09T07:15:54.594Z,96434.94
2022-11-09T07:18:22.455Z,96431.09
2022-11-09T07:20:50.614Z,96434.09
2022-11-09T07:23:18.975Z,96436.69
2022-11-09T07:25:47.272Z,96439.34
2022-11-09T07:28:16.793Z,96445.66
2022-11-09T07:30:44.474Z,96454.84
2022-11-09T07:33:16.007Z,96452.88
2022-11-09T07:35:43.747Z,96453.22
2022-11-09T07:38:11.765Z,96458.09
2022-11-09T07:40:39.556Z,96467.88
2022-11-09T07:43:07.973Z,96470.78
2022-11-09T07:45:37.949Z,96474.97
2022-11-09T07:48:08.161Z,96480.44
2022-11-09T07:50:37.596Z,96475.91
2022-11-09T07:53:07.117Z,96480.44
2022-11-09T07:55:36.158Z,96469.88
2022-11-09T07:58:06.234Z,96458.22
2022-11-09T08:00:35.653Z,96456.50
2022-11-09T08:03:05.342Z,96447.31
2022-11-09T08:05:33.477Z,96449.38
2022-11-09T08:08:03.137Z,96446.47
2022-11-09T08:10:32.392Z,96457.75
2022-11-09T08:13:02.420Z,96451.81
2022-11-09T08:15:31.533Z,96462.38
2022-11-09T08:18:01.140Z,96423.69
2022-11-09T08:20:30.645Z,96470.41
2022-11-09T08:23:03.751Z,96460.97
2022-11-09T08:25:32.509Z,96451.34
2022-11-09T08:28:00.362Z,96473.06
2022-11-09T08:30:28.812Z,96469.16
2022-11-09T08:32:56.665Z,96480.69
2022-11-09T08:35:25.767Z,96467.13
2022-11-09T08:37:55.648Z,96474.72
2022-11-09T08:40:26.916Z,96479.63
2022-11-09T08:42:54.683Z,96480.19
2022-11-09T08:45:22.758Z,96479.13
2022-11-09T08:47:57.770Z,96472.25
2022-11-09T08:50:25.674Z,96468.06
2022-11-09T08:52:55.045Z,96469.19
2022-11-09T08:55:23.106Z,96456.75
2022-11-09T08:57:50.930Z,96460.88
2022-11-09T09:00:19.302Z,96450.84
2022-11-09T09:02:47.018Z,96441.22
2022-11-09T09:05:14.760Z,96436.44
2022-11-09T09:07:42.486Z,96438.28
2022-11-09T09:10:11.897Z,96431.66
2022-11-09T09:12:39.705Z,96423.41
2022-11-09T09:15:08.168Z,96423.56
2022-11-09T09:17:36.492Z,96420.63
2022-11-09T09:20:05.254Z,96427.25
2022-11-09T09:22:33.461Z,96425.06
2022-11-09T09:25:01.352Z,96411.19
2022-11-09T09:27:30.556Z,96407.38
2022-11-09T09:29:59.039Z,96410.97
2022-11-09T09:32:27.006Z,96415.66
2022-11-09T09:34:54.748Z,96423.28
2022-11-09T09:37:22.825Z,96414.81
2022-11-09T09:39:50.569Z,96420.38
2022-11-09T09:42:21.731Z,96426.53
2022-11-09T09:44:58.001Z,96425.16
2022-11-09T09:47:35.174Z,96434.56
2022-11-09T09:50:05.304Z,96438.19
2022-11-09T09:52:39.808Z,96442.59
2022-11-09T09:55:16.948Z,96444.50
2022-11-09T09:57:51.577Z,96445.66
2022-11-09T10:00:24.818Z,96432.06
2022-11-09T10:02:53.611Z,96439.78
2022-11-09T10:05:28.194Z,96439.72
2022-11-09T10:08:10.192Z,96438.59
2022-11-09T10:10:45.910Z,96440.44
2022-11-09T10:13:30.053Z,96433.06
2022-11-09T10:16:06.580Z,96445.31
2022-11-09T10:18:48.991Z,96417.47
2022-11-09T10:21:30.084Z,96438.31
2022-11-09T10:24:09.688Z,96440.34
2022-11-09T10:26:43.984Z,96411.19
2022-11-09T10:29:22.488Z,96426.44
2022-11-09T10:31:53.969Z,96419.75
2022-11-09T10:34:26.398Z,96422.19
2022-11-09T10:37:02.662Z,96421.63
2022-11-09T10:39:40.761Z,96413.03
2022-11-09T10:42:11.574Z,96419.88
2022-11-09T10:44:39.406Z,96416.78
2022-11-09T10:47:13.834Z,96412.31
2022-11-09T10:49:42.181Z,96421.84
2022-11-09T10:52:32.764Z,96422.16
2022-11-09T10:55:24.852Z,96421.75
2022-11-09T10:57:56.377Z,96402.03
2022-11-09T11:00:24.441Z,96409.56
2022-11-09T11:02:54.689Z,96383.00
2022-11-09T11:05:29.235Z,96408.59
2022-11-09T11:07:57.108Z,96401.47
2022-11-09T11:10:25.579Z,96399.88
2022-11-09T11:13:19.072Z,96397.25
2022-11-09T11:15:47.493Z,96393.56
2022-11-09T11:18:22.356Z,96392.13
2022-11-09T11:21:04.938Z,96391.47
2022-11-09T11:23:36.938Z,96388.94
2022-11-09T11:26:21.730Z,96376.38
2022-11-09T11:28:53.472Z,96380.00
2022-11-09T11:31:22.705Z,96378.94
2022-11-09T11:33:51.813Z,96369.13
2022-11-09T11:36:27.772Z,96362.47
2022-11-09T11:39:02.583Z,96361.16
2022-11-09T11:41:48.923Z,96359.06
2022-11-09T11:44:27.747Z,96353.22
2022-11-09T11:47:03.139Z,96354.72
2022-11-09T11:49:57.455Z,96347.22
2022-11-09T11:52:33.598Z,96346.22
2022-11-09T11:55:19.658Z,96350.88
2022-11-09T11:57:59.374Z,96345.53
2022-11-09T12:00:27.479Z,96343.97
2022-11-09T12:03:22.446Z,96334.03
2022-11-09T12:06:06.678Z,96338.19
2022-11-09T12:08:46.180Z,96334.63
2022-11-09T12:11:24.063Z,96337.25
2022-11-09T12:14:03.195Z,96339.22
2022-11-09T12:16:40.158Z,96337.75
2022-11-09T12:19:35.255Z,96321.38
2022-11-09T12:22:09.914Z,96337.88
2022-11-09T12:24:44.794Z,96337.78
2022-11-09T12:27:39.546Z,96340.53
2022-11-09T12:30:13.976Z,96340.22
2022-11-09T12:32:47.444Z,96343.22
2022-11-09T12:35:24.729Z,96339.47
2022-11-09T12:37:59.985Z,96351.13
2022-11-09T12:40:31.055Z,96353.09
2022-11-09T12:43:05.146Z,96346.44
2022-11-09T12:45:35.659Z,96349.69
2022-11-09T12:48:12.059Z,96338.63
2022-11-09T12:50:40.228Z,96352.88
2022-11-09T12:53:10.158Z,96353.28
2022-11-09T12:55:45.994Z,96354.06
2022-11-09T12:58:24.611Z,96359.75
2022-11-09T13:00:55.772Z,96347.66
2022-11-09T13:03:27.465Z,96267.66
2022-11-09T13:06:17.682Z,96357.00
2022-11-09T13:08:59.850Z,96357.53
2022-11-09T13:11:36.895Z,96360.50
2022-11-09T13:14:35.007Z,96357.03
2022-11-09T13:17:23.376Z,96360.59
2022-11-09T13:19:55.346Z,96362.06
2022-11-09T13:23:02.652Z,96365.63
2022-11-09T13:25:50.885Z,96373.94
2022-11-09T13:28:57.384Z,96372.63
2022-11-09T13:31:54.808Z,96368.72
2022-11-09T13:34:43.798Z,96374.56
2022-11-09T13:37:54.666Z,96376.03
2022-11-09T13:40:44.915Z,96376.16
2022-11-09T13:43:21.853Z,96388.03
2022-11-09T13:45:52.753Z,96391.28
2022-11-09T13:48:42.647Z,96386.66
2022-11-09T13:51:13.942Z,96378.44
2022-11-09T13:53:54.338Z,96389.38
2022-11-09T13:56:29.329Z,96370.91
2022-11-09T13:59:00.975Z,96389.59
2022-11-09T14:01:34.207Z,96383.00
2022-11-09T14:04:05.254Z,96395.56
2022-11-09T14:06:34.361Z,96399.06
2022-11-09T14:09:02.721Z,96404.66
2022-11-09T14:12:02.937Z,96378.31
2022-11-09T14:14:55.635Z,96409.69
2022-11-09T14:17:30.717Z,96407.56
2022-11-09T14:20:11.675Z,96412.47
2022-11-09T14:22:41.790Z,96383.44
2022-11-09T14:25:15.812Z,96404.22
2022-11-09T14:27:57.490Z,96389.50
2022-11-09T14:30:29.481Z,96413.41
2022-11-09T14:32:58.737Z,96421.91
2022-11-09T14:35:29.938Z,96419.56
2022-11-09T14:37:59.851Z,96418.19
2022-11-09T14:40:29.653Z,96424.91
2022-11-09T14:43:02.628Z,96405.41
2022-11-09T14:45:30.453Z,96433.09
2022-11-09T14:48:00.235Z,96440.66
2022-11-09T14:50:31.543Z,96437.03
2022-11-09T14:53:00.595Z,96442.66
2022-11-09T14:55:29.362Z,96447.41
2022-11-09T14:57:59.365Z,96447.41
2022-11-09T15:00:33.459Z,96453.25
2022-11-09T15:03:02.135Z,96459.31
2022-11-09T15:05:39.992Z,96459.56
2022-11-09T15:08:19.373Z,96464.56
2022-11-09T15:10:51.022Z,96469.91
2022-11-09T15:13:29.183Z,96458.19
2022-11-09T15:15:57.150Z,96475.63
2022-11-09T15:18:33.743Z,96476.09
2022-11-09T15:21:13.874Z,96475.72
2022-11-09T15:23:43.281Z,96475.84
2022-11-09T15:26:27.429Z,96471.41
2022-11-09T15:28:56.554Z,96470.28
2022-11-09T15:31:25.794Z,96465.38
2022-11-09T15:33:57.697Z,96468.88
2022-11-09T15:36:31.983Z,96472.13
2022-11-09T15:39:09.141Z,96475.88
2022-11-09T15:41:38.437Z,96478.69
2022-11-09T15:44:07.969Z,96462.31
2022-11-09T15:46:41.518Z,96480.44
2022-11-09T15:49:18.278Z,96498.69
2022-11-09T15:51:46.500Z,96500.53
2022-11-09T15:54:15.299Z,96494.84
2022-11-09T15:56:43.675Z,96514.38
2022-11-09T15:59:19.094Z,96514.19
2022-11-09T16:01:46.884Z,96518.25
2022-11-09T16:04:14.702Z,96521.72
2022-11-09T16:06:46.333Z,96518.25
2022-11-09T16:09:14.417Z,96531.03
2022-11-09T16:11:42.151Z,96534.75
2022-11-09T16:14:09.910Z,96540.09
2022-11-09T16:16:39.106Z,96544.63
2022-11-09T16:19:06.853Z,96551.72
2022-11-09T16:21:34.593Z,96556.16
2022-11-09T16:24:02.329Z,96559.97
2022-11-09T16:26:30.165Z,96580.00
2022-11-09T16:28:57.917Z,96582.91
2022-11-09T16:31:48.286Z,96576.25
2022-11-09T16:34:16.101Z,96586.75
2022-11-09T16:36:48.954Z,96588.13
2022-11-09T16:39:21.029Z,96588.72
2022-11-09T16:41:51.180Z,96589.53
2022-11-09T16:44:23.622Z,96579.50
2022-11-09T16:46:52.048Z,96589.88
2022-11-09T16:49:21.248Z,96572.88
2022-11-09T16:51:49.086Z,96592.91
2022-11-09T16:54:16.833Z,96592.69
2022-11-09T16:56:44.979Z,96593.03
2022-11-09T16:59:12.876Z,96599.88
2022-11-09T17:01:40.961Z,96595.94
2022-11-09T17:04:08.915Z,96599.31
2022-11-09T17:06:38.090Z,96606.50
2022-11-09T17:09:05.889Z,96626.63
2022-11-09T17:11:33.691Z,96610.94
2022-11-09T17:14:02.101Z,96628.25
2022-11-09T17:16:29.894Z,96628.13
2022-11-09T17:18:58.547Z,96631.88
2022-11-09T17:21:28.401Z,96614.88
2022-11-09T17:23:58.231Z,96642.00
2022-11-09T17:26:26.937Z,96647.34
2022-11-09T17:28:54.685Z,96643.16
2022-11-09T17:31:26.578Z,96643.63
2022-11-09T17:33:58.442Z,96620.56
2022-11-09T17:36:56.792Z,96648.16
2022-11-09T17:39:17.909Z,96652.34
2022-11-09T17:41:45.665Z,96650.16
2022-11-09T17:44:13.407Z,96663.66
2022-11-09T17:46:41.227Z,96663.16
2022-11-09T17:49:10.391Z,96664.44
2022-11-09T17:51:38.459Z,96675.75
2022-11-09T17:54:06.598Z,96679.81
2022-11-09T17:56:35.948Z,96676.56
2022-11-09T17:59:06.216Z,96673.88
2022-11-09T18:01:40.818Z,96677.47
2022-11-09T18:04:10.707Z,96683.53
2022-11-09T18:06:39.246Z,96683.53
2022-11-09T18:11:57.157Z,96692.25
2022-11-09T18:14:24.917Z,96691.44
2022-11-09T18:16:52.663Z,96690.41
2022-11-09T18:19:20.517Z,96699.94
2022-11-09T18:21:48.304Z,96682.00
2022-11-09T18:24:16.204Z,96694.91
2022-11-09T18:26:43.979Z,96695.94
2022-11-09T18:29:13.095Z,96705.03
2022-11-09T18:31:40.931Z,96702.56
2022-11-09T18:34:08.835Z,96704.56
2022-11-09T18:36:36.567Z,96707.13
2022-11-09T18:39:04.726Z,96714.00
2022-11-09T18:41:33.015Z,96703.31
2022-11-09T18:44:00.843Z,96708.53
2022-11-09T18:46:33.093Z,96691.88
2022-11-09T18:49:00.949Z,96715.63
2022-11-09T18:51:28.702Z,96713.09
2022-11-09T18:53:56.558Z,96704.09
2022-11-09T18:56:25.879Z,96713.31
2022-11-09T18:58:55.194Z,96716.69
2022-11-09T19:01:24.443Z,96708.00
2022-11-09T19:03:58.976Z,96707.16
2022-11-09T19:06:28.189Z,96717.16
2022-11-09T19:09:13.648Z,96714.00
2022-11-09T19:11:41.750Z,96716.81
2022-11-09T19:14:10.337Z,96714.84
2022-11-09T19:16:38.158Z,96714.63
2022-11-09T19:19:07.278Z,96713.31
2022-11-09T19:21:41.397Z,96715.91
2022-11-09T19:24:12.167Z,96681.28
2022-11-09T19:26:40.277Z,96706.13
2022-11-09T19:29:08.973Z,96705.53
2022-11-09T19:31:37.118Z,96707.47
2022-11-09T19:34:05.064Z,96702.59
2022-11-09T19:36:34.699Z,96717.16
2022-11-09T19:39:02.902Z,96717.63
2022-11-09T19:41:30.656Z,96709.28
2022-11-09T19:43:59.601Z,96707.63
2022-11-09T19:46:30.369Z,96708.34
2022-11-09T19:48:58.841Z,96705.19
2022-11-09T19:51:26.834Z,96703.75
2022-11-09T19:54:03.013Z,96721.34
2022-11-09T19:56:32.889Z,96719.84
2022-11-09T19:59:04.638Z,96716.00
2022-11-09T20:01:32.712Z,96723.53
2022-11-09T20:04:09.909Z,96720.88
2022-11-09T20:06:41.232Z,96722.97
2022-11-09T20:09:12.163Z,96726.13
2022-11-09T20:12:00.041Z,96726.34
2022-11-09T20:14:27.813Z,96739.44
2022-11-09T20:17:00.575Z,96724.97
2022-11-09T20:19:32.822Z,96723.81
2022-11-09T20:22:00.619Z,96739.84
2022-11-09T20:24:29.806Z,96749.94
2022-11-09T20:26:57.634Z,96745.72
2022-11-09T20:29:25.379Z,96741.06
2022-11-09T20:31:53.151Z,96749.56
2022-11-09T20:34:20.916Z,96756.97
2022-11-09T20:36:48.815Z,96755.69
2022-11-09T20:39:19.406Z,96761.88
2022-11-09T20:41:50.358Z,96761.13
2022-11-09T20:44:20.661Z,96762.03
2022-11-09T20:46:49.605Z,96766.72
2022-11-09T20:49:17.400Z,96755.25
2022-11-09T20:51:45.230Z,96772.72
2022-11-09T20:54:12.988Z,96777.16
2022-11-09T20:56:40.816Z,96786.22
2022-11-09T20:59:10.186Z,96778.22
2022-11-09T21:01:38.313Z,96771.09
2022-11-09T21:04:06.310Z,96783.69
2022-11-09T21:06:34.294Z,96781.13
2022-11-09T21:09:04.604Z,96788.44
2022-11-09T21:11:59.323Z,96791.78
2022-11-09T21:14:28.499Z,96789.88
2022-11-09T21:16:56.316Z,96776.28
2022-11-09T21:19:24.112Z,96801.84
2022-11-09T21:21:51.844Z,96803.53
2022-11-09T21:24:37.175Z,96806.22
2022-11-09T21:27:22.563Z,96813.88
2022-11-09T21:29:51.796Z,96823.81
2022-11-09T21:32:20.575Z,96815.94
2022-11-09T21:34:48.694Z,96833.03
2022-11-09T21:37:18.284Z,96832.63
2022-11-09T21:39:46.118Z,96825.81
2022-11-09T21:42:13.974Z,96827.84
2022-11-09T21:44:41.889Z,96838.06
2022-11-09T21:47:11.028Z,96831.03
2022-11-09T21:49:38.830Z,96833.84
2022-11-09T21:52:06.803Z,96836.28
2022-11-09T21:54:34.600Z,96838.75
2022-11-09T21:57:02.817Z,96844.09
2022-11-09T21:59:30.617Z,96838.16
2022-11-09T22:01:58.375Z,96836.28
2022-11-09T22:04:27.527Z,96838.38
2022-11-09T22:06:55.330Z,96845.34
2022-11-09T22:09:23.109Z,96844.31
2022-11-09T22:12:08.045Z,96846.97
2022-11-09T22:14:53.450Z,96853.97
2022-11-09T22:17:21.172Z,96851.88
2022-11-09T22:20:07.864Z,96862.94
2022-11-09T22:22:36.330Z,96859.84
2022-11-09T22:25:04.469Z,96854.25
2022-11-09T22:27:33.184Z,96866.88
2022-11-09T22:30:01.234Z,96862.78
2022-11-09T22:32:29.187Z,96862.78
2022-11-09T22:34:58.271Z,96858.41
2022-11-09T22:37:26.112Z,96852.47
2022-11-09T22:39:53.935Z,96850.81
2022-11-09T22:42:21.668Z,96857.22
2022-11-09T22:44:49.387Z,96856.56
2022-11-09T22:47:17.095Z,96863.63
2022-11-09T22:49:45.186Z,96865.84
2022-11-09T22:52:14.286Z,96869.19
2022-11-09T22:54:42.040Z,96875.94
2022-11-09T22:57:09.789Z,96875.22
2022-11-09T22:59:37.499Z,96881.41
2022-11-09T23:02:05.228Z,96874.75
2022-11-09T23:04:32.970Z,96885.91
2022-11-09T23:07:00.775Z,96880.56
2022-11-09T23:09:29.848Z,96882.56
2022-11-09T23:11:57.571Z,96875.44
2022-11-09T23:14:39.180Z,96896.81
2022-11-09T23:17:27.369Z,96890.78
2022-11-09T23:19:54.222Z,96898.69
2022-11-09T23:22:21.909Z,96906.13
2022-11-09T23:25:08.174Z,96914.28
2022-11-09T23:27:35.921Z,96913.25
2022-11-09T23:30:04.581Z,96915.47
2022-11-09T23:32:32.347Z,96905.59
2022-11-09T23:35:00.078Z,96911.91
2022-11-09T23:37:28.054Z,96906.72
2022-11-09T23:39:57.218Z,96904.63
2022-11-09T23:42:25.021Z,96904.63
2022-11-09T23:44:52.708Z,96910.19
2022-11-09T23:47:20.465Z,96902.25
2022-11-09T23:49:48.267Z,96911.34
2022-11-09T23:52:16.017Z,96907.16
2022-11-09T23:54:45.549Z,96913.41
2022-11-09T23:57:14.889Z,96915.91
2022-11-09T23:59:42.593Z,96924.09
